EET,Max TemperatureF,Mean TemperatureF,Min TemperatureF,Max Dew PointF,MeanDew PointF,Min DewpointF,Max Humidity, Mean Humidity, Min Humidity, Max Sea Level PressureIn, Mean Sea Level PressureIn, Min Sea Level PressureIn, Max VisibilityMiles, Mean VisibilityMiles, Min VisibilityMiles, Max Wind SpeedMPH, Mean Wind SpeedMPH, Max Gust SpeedMPH,PrecipitationIn, CloudCover, Events, WindDirDegrees
2012-10-1,87,68,50,36,31,28,44,25,7,30.27,30.21,30.04,12,7,6,13,5,,0.00,4,,50
2012-10-2,86,73,60,41,34,28,39,24,8,30.21,30.15,29.93,12,7,6,15,7,,0.00,3,,58
2012-10-3,75,64,54,55,46,41,88,52,23,30.15,30.06,29.93,12,7,6,16,6,,0.01,4,Rain,90
2012-10-4,69,60,51,55,52,48,94,74,49,30.04,30.01,29.90,12,7,6,13,4,,0.08,4,Rain-Thunderstorm,352
2012-10-5,75,60,44,52,46,41,94,67,19,30.15,30.07,29.96,12,7,6,16,4,,0.00,3,Thunderstorm,41
2012-10-6,74,62,50,52,44,36,88,56,19,30.21,30.16,30.07,12,7,6,16,7,,0.00,1,,38
2012-10-7,78,62,46,45,40,34,82,49,13,30.15,30.06,29.91,12,8,6,8,5,,0.00,1,,13
2012-10-8,74,60,46,46,39,34,71,48,16,29.98,29.91,29.77,12,7,6,17,5,,0.00,3,,260
2012-10-9,64,56,48,46,43,39,87,63,36,30.01,29.97,29.91,12,6,6,9,4,,0.00,3,Rain,307
2012-10-10,69,56,43,48,43,39,87,65,26,29.98,29.95,29.87,12,7,6,10,5,,0.00,4,,19
2012-10-11,58,54,51,54,51,46,94,86,63,29.98,29.89,29.80,12,6,5,13,6,,0.12,6,Rain,226
2012-10-12,65,52,40,50,45,39,100,76,33,30.19,30.13,30.01,12,6,0,9,4,,0.00,3,Fog,230
2012-10-13,71,54,37,46,41,36,100,68,22,30.21,30.15,30.09,12,5,2,8,3,,0.00,3,,354
2012-10-14,74,56,38,43,40,34,93,59,17,30.16,30.12,30.02,12,7,6,8,3,,0.00,1,,229
2012-10-15,77,58,40,43,39,34,87,55,16,30.24,30.17,30.09,12,12,12,7,3,,0.00,,,202
2012-10-16,79,60,41,43,40,36,87,51,14,30.30,30.25,30.14,12,7,6,9,3,,0.00,1,,207
2012-10-17,81,62,42,46,41,36,76,50,14,30.30,30.24,30.11,12,7,6,16,3,,0.00,3,Rain-Thunderstorm,9
2012-10-18,79,62,45,54,45,41,81,59,17,30.27,30.23,30.08,12,7,6,24,3,,0.01,3,Rain-Thunderstorm,17
2012-10-19,72,58,44,48,37,21,93,50,12,30.24,30.20,30.09,12,7,6,10,5,,0.00,1,,22
2012-10-20,68,53,38,46,36,30,76,52,16,30.15,30.07,29.98,12,7,6,16,5,,0.00,3,,17
2012-10-21,67,60,52,48,45,34,77,62,33,30.12,30.05,29.96,12,7,6,18,10,,0.04,3,Rain,31
2012-10-22,69,57,45,52,47,45,94,76,40,30.15,30.08,30.04,12,6,6,15,6,,0.04,4,Rain,360
2012-10-23,67,58,48,52,48,43,94,74,35,30.06,30.03,29.95,12,6,6,8,5,,0.00,3,Rain,321
2012-10-24,66,56,46,49,46,43,93,75,35,30.04,30.03,29.96,12,6,6,10,3,,0.01,3,Rain,59
2012-10-25,66,52,38,50,44,37,100,81,40,30.01,29.95,29.87,12,6,5,12,2,,0.04,3,Rain,28
2012-10-26,65,50,36,46,42,37,100,79,45,29.99,29.94,29.89,12,5,0,10,3,,0.00,2,Fog,232
2012-10-27,68,52,37,45,41,36,100,70,32,30.04,30.01,29.95,12,7,6,12,3,,0.00,2,,241
2012-10-28,70,52,35,45,40,34,93,67,25,30.12,30.07,30.01,12,7,6,10,3,,0.00,4,,226
2012-10-29,74,59,44,45,42,39,87,58,19,30.12,30.03,29.91,12,7,6,10,3,,0.00,6,,88
2012-10-30,67,55,43,45,41,37,81,60,33,30.04,29.92,29.84,12,7,6,20,5,,0.00,4,,213
2012-10-31,64,52,40,41,39,37,87,64,28,30.12,30.08,30.01,12,7,6,7,3,,0.00,4,,28